createdAt,value
2018-03-03T00:02:03.114Z,100167.06
2018-03-03T00:04:28.934Z,100169.95
2018-03-03T00:06:54.969Z,100168.52
2018-03-03T00:09:20.778Z,100173.86
2018-03-03T00:11:46.572Z,100169.64
2018-03-03T00:14:12.376Z,100175.45
2018-03-03T00:16:38.155Z,100172.58
2018-03-03T00:19:04.051Z,100168.76
2018-03-03T00:21:29.848Z,100173.95
2018-03-03T00:23:55.651Z,100176.54
2018-03-03T00:26:21.436Z,100166.23
2018-03-03T00:28:47.238Z,100164.62
2018-03-03T00:31:13.018Z,100164.69
2018-03-03T00:33:38.801Z,100155.58
2018-03-03T00:36:04.611Z,100161.74
2018-03-03T00:38:30.699Z,100161.53
2018-03-03T00:40:56.575Z,100166.52
2018-03-03T00:43:22.864Z,100167.41
2018-03-03T00:45:48.662Z,100162.33
2018-03-03T00:48:14.482Z,100162.87
2018-03-03T00:50:40.299Z,100162.70
2018-03-03T00:53:06.144Z,100159.86
2018-03-03T00:55:31.941Z,100157.84
2018-03-03T00:57:57.746Z,100169.45
2018-03-03T01:00:23.547Z,100165.31
2018-03-03T01:02:49.332Z,100169.50
2018-03-03T01:05:15.132Z,100173.98
2018-03-03T01:07:40.911Z,100179.59
2018-03-03T01:10:06.700Z,100168.13
2018-03-03T01:12:32.506Z,100178.75
2018-03-03T01:14:58.313Z,100176.67
2018-03-03T01:17:24.117Z,100178.42
2018-03-03T01:19:49.915Z,100171.88
2018-03-03T01:22:15.705Z,100176.08
2018-03-03T01:24:41.487Z,100179.17
2018-03-03T01:27:07.312Z,100174.02
2018-03-03T01:29:33.087Z,100172.25
2018-03-03T01:31:58.879Z,100165.30
2018-03-03T01:34:24.710Z,100168.28
2018-03-03T01:36:50.500Z,100165.03
2018-03-03T01:39:16.563Z,100163.00
2018-03-03T01:41:42.844Z,100164.53
2018-03-03T01:44:09.069Z,100164.66
2018-03-03T01:46:34.892Z,100167.09
2018-03-03T01:49:00.683Z,100175.02
2018-03-03T01:51:39.219Z,100171.78
2018-03-03T01:54:04.992Z,100170.52
2018-03-03T01:56:30.788Z,100169.02
2018-03-03T01:58:56.737Z,100169.95
2018-03-03T02:01:22.603Z,100165.32
2018-03-03T02:03:48.392Z,100158.05
2018-03-03T02:06:14.202Z,100149.27
2018-03-03T02:08:40.004Z,100147.66
2018-03-03T02:11:05.803Z,100144.56
2018-03-03T02:13:31.598Z,100152.30
2018-03-03T02:15:57.385Z,100146.55
2018-03-03T02:18:23.194Z,100149.52
2018-03-03T02:20:48.979Z,100140.91
2018-03-03T02:23:21.698Z,100144.08
2018-03-03T02:25:47.491Z,100146.20
2018-03-03T02:28:13.266Z,100138.09
2018-03-03T02:30:39.067Z,100144.27
2018-03-03T02:33:04.872Z,100141.59
2018-03-03T02:35:30.674Z,100137.47
2018-03-03T02:37:56.462Z,100138.94
2018-03-03T02:40:22.381Z,100137.45
2018-03-03T02:42:48.172Z,100144.44
2018-03-03T02:45:13.975Z,100147.28
2018-03-03T02:47:39.755Z,100151.30
2018-03-03T02:50:05.659Z,100142.03
2018-03-03T02:52:31.454Z,100140.68
2018-03-03T02:54:57.524Z,100139.22
2018-03-03T02:57:23.306Z,100135.06
2018-03-03T02:59:49.159Z,100127.84
2018-03-03T03:02:14.963Z,100135.42
2018-03-03T03:04:40.743Z,100130.33
2018-03-03T03:07:06.522Z,100126.36
2018-03-03T03:09:32.343Z,100121.69
2018-03-03T03:11:58.123Z,100123.77
2018-03-03T03:14:23.906Z,100122.47
2018-03-03T03:16:49.778Z,100117.95
2018-03-03T03:19:15.566Z,100122.63
2018-03-03T03:21:41.351Z,100113.58
2018-03-03T03:24:07.172Z,100122.00
2018-03-03T03:26:32.963Z,100121.38
2018-03-03T03:28:58.751Z,100122.44
2018-03-03T03:31:24.564Z,100119.79
2018-03-03T03:33:50.406Z,100116.95
2018-03-03T03:36:16.194Z,100110.39
2018-03-03T03:38:42.009Z,100111.33
2018-03-03T03:41:07.798Z,100113.66
2018-03-03T03:43:33.592Z,100115.61
2018-03-03T03:45:59.391Z,100118.84
2018-03-03T03:48:25.181Z,100122.97
2018-03-03T03:50:50.971Z,100120.25
2018-03-03T03:53:16.770Z,100117.20
2018-03-03T03:55:42.568Z,100120.44
2018-03-03T03:58:08.350Z,100122.72
2018-03-03T04:00:34.171Z,100125.19
2018-03-03T04:02:59.986Z,100117.42
2018-03-03T04:05:25.769Z,100122.62
2018-03-03T04:07:51.569Z,100117.19
2018-03-03T04:10:17.350Z,100114.80
2018-03-03T04:12:43.166Z,100120.19
2018-03-03T04:15:08.999Z,100113.13
2018-03-03T04:17:34.799Z,100119.66
2018-03-03T04:20:00.614Z,100115.19
2018-03-03T04:22:26.398Z,100115.27
2018-03-03T04:24:52.214Z,100109.48
2018-03-03T04:27:18.042Z,100114.89
2018-03-03T04:29:43.835Z,100114.30
2018-03-03T04:32:09.638Z,100112.23
2018-03-03T04:34:35.763Z,100110.34
2018-03-03T04:37:01.570Z,100101.25
2018-03-03T04:39:27.400Z,100112.62
2018-03-03T04:41:53.351Z,100116.38
2018-03-03T04:44:19.155Z,100111.23
2018-03-03T04:46:44.957Z,100108.18
2018-03-03T04:49:10.983Z,100107.45
2018-03-03T04:51:36.739Z,100101.81
2018-03-03T04:54:02.566Z,100104.84
2018-03-03T04:56:29.195Z,100096.66
2018-03-03T04:58:56.951Z,100102.64
2018-03-03T05:01:22.814Z,100096.26
2018-03-03T05:03:54.615Z,100096.89
2018-03-03T05:06:27.300Z,100103.06
2018-03-03T05:08:53.103Z,100094.28
2018-03-03T05:11:18.930Z,100094.36
2018-03-03T05:13:44.724Z,100089.73
2018-03-03T05:16:16.706Z,100089.28
2018-03-03T05:18:48.437Z,100093.23
2018-03-03T05:24:26.833Z,100087.00
2018-03-03T05:26:58.766Z,100091.98
2018-03-03T05:29:29.383Z,100085.81
2018-03-03T05:32:01.319Z,100095.25
2018-03-03T05:37:32.994Z,100096.21
2018-03-03T05:40:04.772Z,100094.50
2018-03-03T05:42:36.662Z,100097.39
2018-03-03T05:45:08.574Z,100083.75
2018-03-03T05:47:40.420Z,100093.05
2018-03-03T05:53:08.503Z,100103.53
2018-03-03T05:58:41.219Z,100106.30
2018-03-03T06:01:17.899Z,100101.69
2018-03-03T06:03:51.499Z,100102.56
2018-03-03T06:06:17.315Z,100096.16
2018-03-03T06:08:49.314Z,100101.97
2018-03-03T06:11:15.127Z,100108.37
2018-03-03T06:13:40.942Z,100108.25
2018-03-03T06:16:07.053Z,100104.05
2018-03-03T06:18:32.865Z,100108.24
2018-03-03T06:20:58.760Z,100106.80
2018-03-03T06:23:25.248Z,100102.59
2018-03-03T06:25:51.052Z,100088.73
2018-03-03T06:28:16.870Z,100098.33
2018-03-03T06:30:42.678Z,100106.11
2018-03-03T06:33:08.479Z,100106.64
2018-03-03T06:35:34.282Z,100102.78
2018-03-03T06:38:00.335Z,100104.70
2018-03-03T06:40:26.147Z,100102.81
2018-03-03T06:42:51.941Z,100107.23
2018-03-03T06:45:17.758Z,100099.72
2018-03-03T06:47:43.551Z,100108.36
2018-03-03T06:50:09.340Z,100104.02
2018-03-03T06:52:35.134Z,100106.17
2018-03-03T06:55:01.591Z,100110.34
2018-03-03T06:57:27.474Z,100102.69
2018-03-03T06:59:53.282Z,100105.02
2018-03-03T07:02:19.081Z,100102.13
2018-03-03T07:04:44.899Z,100111.93
2018-03-03T07:07:10.683Z,100101.47
2018-03-03T07:09:36.466Z,100103.77
2018-03-03T07:12:02.282Z,100102.66
2018-03-03T07:14:32.044Z,100100.91
2018-03-03T07:16:57.874Z,100110.84
2018-03-03T07:19:23.980Z,100107.77
2018-03-03T07:21:49.774Z,100105.01
2018-03-03T07:24:15.566Z,100106.06
2018-03-03T07:26:41.375Z,100102.30
2018-03-03T07:29:07.172Z,100102.34
2018-03-03T07:31:32.970Z,100088.91
2018-03-03T07:33:58.758Z,100088.80
2018-03-03T07:36:24.552Z,100097.14
2018-03-03T07:38:50.362Z,100090.19
2018-03-03T07:41:16.169Z,100086.38
2018-03-03T07:43:41.975Z,100087.11
2018-03-03T07:46:07.796Z,100085.28
2018-03-03T07:48:34.673Z,100082.64
2018-03-03T07:51:00.612Z,100089.03
2018-03-03T07:53:26.750Z,100087.66
2018-03-03T07:55:53.358Z,100092.23
2018-03-03T08:01:19.330Z,100085.98
2018-03-03T08:03:45.157Z,100096.11
2018-03-03T08:06:11.377Z,100088.33
2018-03-03T08:08:37.257Z,100092.06
2018-03-03T08:11:03.070Z,100084.19
2018-03-03T08:13:28.862Z,100077.64
2018-03-03T08:15:54.961Z,100082.39
2018-03-03T08:18:21.358Z,100082.55
2018-03-03T08:20:47.146Z,100079.01
2018-03-03T08:23:12.966Z,100084.73
2018-03-03T08:25:45.811Z,100083.56
2018-03-03T08:28:11.615Z,100081.04
2018-03-03T08:30:37.471Z,100086.53
2018-03-03T08:33:03.294Z,100075.45
2018-03-03T08:35:30.259Z,100080.27
2018-03-03T08:37:56.356Z,100082.56
2018-03-03T08:40:22.180Z,100075.59
2018-03-03T08:42:48.010Z,100070.66
2018-03-03T08:45:13.821Z,100084.94
2018-03-03T08:47:39.791Z,100071.25
2018-03-03T08:50:05.655Z,100072.39
2018-03-03T08:52:31.601Z,100080.03
2018-03-03T08:54:57.355Z,100086.70
2018-03-03T08:57:23.223Z,100088.30
2018-03-03T08:59:49.046Z,100095.15
2018-03-03T09:02:14.848Z,100092.91
2018-03-03T09:04:40.671Z,100097.87
2018-03-03T09:07:06.473Z,100091.61
2018-03-03T09:09:33.228Z,100092.80
2018-03-03T09:11:59.111Z,100088.65
2018-03-03T09:14:24.932Z,100095.55
2018-03-03T09:16:50.754Z,100085.39
2018-03-03T09:19:16.571Z,100084.20
2018-03-03T09:21:42.415Z,100077.51
2018-03-03T09:24:08.234Z,100077.14
2018-03-03T09:26:34.038Z,100079.83
2018-03-03T09:28:59.829Z,100085.69
2018-03-03T09:31:25.806Z,100080.52
2018-03-03T09:33:52.364Z,100084.85
2018-03-03T09:36:18.206Z,100081.95
2018-03-03T09:38:44.023Z,100088.01
2018-03-03T09:41:09.823Z,100087.58
2018-03-03T09:43:36.203Z,100082.62
2018-03-03T09:46:02.322Z,100083.42
2018-03-03T09:48:28.901Z,100078.61
2018-03-03T09:50:54.873Z,100075.41
2018-03-03T09:53:21.410Z,100081.95
2018-03-03T09:55:47.284Z,100074.52
2018-03-03T09:58:13.110Z,100081.44
2018-03-03T10:00:39.168Z,100077.08
2018-03-03T10:03:06.447Z,100077.95
2018-03-03T10:05:32.252Z,100082.71
2018-03-03T10:07:58.581Z,100071.63
2018-03-03T10:10:24.634Z,100063.73
2018-03-03T10:12:50.422Z,100062.08
2018-03-03T10:15:16.329Z,100064.48
2018-03-03T10:17:42.118Z,100072.16
2018-03-03T10:20:07.929Z,100068.99
2018-03-03T10:22:33.756Z,100060.52
2018-03-03T10:24:59.558Z,100062.24
2018-03-03T10:27:25.395Z,100069.28
2018-03-03T10:29:51.235Z,100064.24
2018-03-03T10:32:17.059Z,100068.73
2018-03-03T10:34:42.871Z,100060.58
2018-03-03T10:37:08.683Z,100070.25
2018-03-03T10:39:34.524Z,100066.38
2018-03-03T10:42:00.802Z,100051.64
2018-03-03T10:44:26.626Z,100050.81
2018-03-03T10:46:52.433Z,100062.25
2018-03-03T10:49:18.240Z,100051.47
2018-03-03T10:51:44.926Z,100047.84
2018-03-03T10:54:10.723Z,100050.50
2018-03-03T10:56:36.555Z,100055.91
2018-03-03T10:59:02.406Z,100050.30
2018-03-03T11:01:28.252Z,100038.30
2018-03-03T11:03:54.059Z,100048.09
2018-03-03T11:06:26.930Z,100046.10
2018-03-03T11:08:52.750Z,100049.57
2018-03-03T11:11:18.554Z,100044.88
2018-03-03T11:13:45.147Z,100049.34
2018-03-03T11:16:10.940Z,100048.41
2018-03-03T11:18:36.784Z,100045.81
2018-03-03T11:21:02.579Z,100043.14
2018-03-03T11:23:28.788Z,100046.67
2018-03-03T11:25:54.616Z,100051.75
2018-03-03T11:28:20.601Z,100043.81
2018-03-03T11:30:46.399Z,100037.45
2018-03-03T11:33:12.292Z,100049.48
2018-03-03T11:35:38.083Z,100041.66
2018-03-03T11:38:03.936Z,100047.88
2018-03-03T11:40:33.136Z,100036.48
2018-03-03T11:42:55.530Z,100033.02
2018-03-03T11:45:21.378Z,100028.31
2018-03-03T11:47:47.186Z,100025.12
2018-03-03T11:50:13.053Z,100026.69
2018-03-03T11:52:39.196Z,100028.34
2018-03-03T11:55:05.004Z,100027.57
2018-03-03T11:57:31.786Z,100029.29
2018-03-03T11:59:57.634Z,100030.09
2018-03-03T12:02:23.526Z,100036.44
2018-03-03T12:04:56.287Z,100025.34
2018-03-03T12:07:22.111Z,100036.66
2018-03-03T12:09:47.924Z,100023.80
2018-03-03T12:12:13.754Z,100021.69
2018-03-03T12:14:39.567Z,100022.64
2018-03-03T12:17:05.358Z,100011.56
2018-03-03T12:19:31.146Z,100023.52
2018-03-03T12:21:56.959Z,100016.95
2018-03-03T12:24:22.795Z,100020.03
2018-03-03T12:26:48.603Z,100019.46
2018-03-03T12:29:14.712Z,100021.95
2018-03-03T12:31:40.488Z,100022.02
2018-03-03T12:34:06.262Z,100010.60
2018-03-03T12:36:32.054Z,100006.34
2018-03-03T12:38:57.846Z,100006.06
2018-03-03T12:41:23.630Z,100005.71
2018-03-03T12:43:49.455Z,99999.39
2018-03-03T12:46:15.245Z,100004.38
2018-03-03T12:48:41.038Z,100004.77
2018-03-03T12:51:06.902Z,100001.19
2018-03-03T12:53:32.683Z,100000.09
2018-03-03T12:55:58.472Z,99998.67
2018-03-03T12:58:24.320Z,99999.92
2018-03-03T13:00:50.079Z,99994.81
2018-03-03T13:03:15.875Z,99996.53
2018-03-03T13:05:41.713Z,99996.03
2018-03-03T13:08:07.499Z,99990.23
2018-03-03T13:10:33.311Z,99999.40
2018-03-03T13:12:59.098Z,99992.07
2018-03-03T13:15:24.891Z,99997.34
2018-03-03T13:17:50.799Z,99989.16
2018-03-03T13:20:16.574Z,99987.42
2018-03-03T13:22:42.351Z,99972.77
2018-03-03T13:25:08.155Z,99971.94
2018-03-03T13:27:33.995Z,99969.32
2018-03-03T13:29:59.728Z,99961.70
2018-03-03T13:32:25.534Z,99971.80
2018-03-03T13:34:51.314Z,99948.89
2018-03-03T13:37:17.103Z,99961.89
2018-03-03T13:39:43.281Z,99958.49
2018-03-03T13:42:09.074Z,99953.61
2018-03-03T13:44:34.855Z,99952.78
2018-03-03T13:47:00.674Z,99952.64
2018-03-03T13:49:26.480Z,99952.91
2018-03-03T13:51:52.259Z,99946.16
2018-03-03T13:54:18.083Z,99944.84
2018-03-03T13:56:43.952Z,99944.12
2018-03-03T13:59:09.695Z,99943.23
2018-03-03T14:01:35.514Z,99922.69
2018-03-03T14:04:01.299Z,99931.08
2018-03-03T14:06:27.104Z,99922.78
2018-03-03T14:08:52.912Z,99929.48
2018-03-03T14:11:18.726Z,99931.83
2018-03-03T14:13:44.500Z,99928.91
2018-03-03T14:16:10.300Z,99932.57
2018-03-03T14:18:36.154Z,99935.38
2018-03-03T14:21:01.954Z,99937.30
2018-03-03T14:23:27.721Z,99929.91
2018-03-03T14:25:53.765Z,99935.97
2018-03-03T14:28:19.514Z,99936.99
2018-03-03T14:30:45.299Z,99941.99
2018-03-03T14:33:11.079Z,99934.03
2018-03-03T14:35:36.888Z,99933.44
2018-03-03T14:38:02.725Z,99939.87
2018-03-03T14:40:28.526Z,99943.02
2018-03-03T14:42:54.304Z,99925.27
2018-03-03T14:45:20.486Z,99930.36
2018-03-03T14:47:46.283Z,99934.77
2018-03-03T14:50:12.059Z,99934.07
2018-03-03T14:52:37.860Z,99936.02
2018-03-03T14:55:03.658Z,99935.89
2018-03-03T14:57:29.434Z,99928.72
2018-03-03T14:59:55.331Z,99939.76
2018-03-03T15:02:21.133Z,99930.03
2018-03-03T15:04:46.911Z,99937.68
2018-03-03T15:07:12.735Z,99940.00
2018-03-03T15:09:38.522Z,99939.23
2018-03-03T15:12:04.320Z,99933.92
2018-03-03T15:14:30.124Z,99934.64
2018-03-03T15:16:55.916Z,99936.66
2018-03-03T15:19:21.701Z,99928.05
2018-03-03T15:21:47.490Z,99936.55
2018-03-03T15:24:13.290Z,99934.58
2018-03-03T15:26:39.120Z,99932.34
2018-03-03T15:29:04.928Z,99931.50
2018-03-03T15:31:30.923Z,99927.98
2018-03-03T15:33:56.707Z,99923.47
2018-03-03T15:36:22.495Z,99921.69
2018-03-03T15:38:48.482Z,99922.81
2018-03-03T15:41:14.268Z,99929.16
2018-03-03T15:43:40.059Z,99930.61
2018-03-03T15:46:05.858Z,99931.25
2018-03-03T15:48:31.674Z,99932.71
2018-03-03T15:50:57.466Z,99935.85
2018-03-03T15:53:23.257Z,99942.88
2018-03-03T15:55:49.078Z,99933.72
2018-03-03T15:58:14.866Z,99919.63
2018-03-03T16:00:40.651Z,99917.06
2018-03-03T16:03:06.444Z,99918.78
2018-03-03T16:05:32.250Z,99926.17
2018-03-03T16:07:58.048Z,99923.16
2018-03-03T16:10:23.847Z,99928.95
2018-03-03T16:12:49.640Z,99924.56
2018-03-03T16:15:22.360Z,99926.55
2018-03-03T16:17:48.160Z,99922.66
2018-03-03T16:20:13.959Z,99929.05
2018-03-03T16:22:39.842Z,99925.87
2018-03-03T16:25:05.652Z,99918.06
2018-03-03T16:27:31.446Z,99925.06
2018-03-03T16:29:57.261Z,99929.14
2018-03-03T16:32:23.052Z,99929.05
2018-03-03T16:34:48.835Z,99934.17
2018-03-03T16:37:14.984Z,99927.58
2018-03-03T16:39:40.775Z,99934.02
2018-03-03T16:42:06.550Z,99934.69
2018-03-03T16:44:32.360Z,99932.48
2018-03-03T16:46:58.142Z,99928.61
2018-03-03T16:49:23.930Z,99933.78
2018-03-03T16:51:49.996Z,99939.34
2018-03-03T16:54:15.787Z,99929.93
2018-03-03T16:56:41.578Z,99931.19
2018-03-03T16:59:07.458Z,99933.50
2018-03-03T17:01:33.246Z,99940.33
2018-03-03T17:03:59.019Z,99935.65
2018-03-03T17:06:24.816Z,99939.48
2018-03-03T17:08:50.627Z,99936.38
2018-03-03T17:11:16.438Z,99932.27
2018-03-03T17:13:42.269Z,99937.30
2018-03-03T17:16:08.067Z,99940.16
2018-03-03T17:18:33.866Z,99939.56
2018-03-03T17:20:59.639Z,99943.08
2018-03-03T17:23:25.425Z,99941.02
2018-03-03T17:25:51.230Z,99936.87
2018-03-03T17:28:17.033Z,99946.70
2018-03-03T17:30:42.820Z,99952.67
2018-03-03T17:33:08.623Z,99944.42
2018-03-03T17:35:34.423Z,99945.35
2018-03-03T17:38:00.245Z,99937.78
2018-03-03T17:40:26.037Z,99940.92
2018-03-03T17:42:51.804Z,99948.06
2018-03-03T17:45:17.610Z,99960.16
2018-03-03T17:47:43.414Z,99953.64
2018-03-03T17:50:09.212Z,99952.73
2018-03-03T17:52:35.009Z,99957.53
2018-03-03T17:55:00.802Z,99958.78
2018-03-03T17:57:26.712Z,99960.58
2018-03-03T17:59:52.512Z,99961.08
2018-03-03T18:02:18.317Z,99968.75
2018-03-03T18:04:44.139Z,99966.58
2018-03-03T18:07:09.924Z,99974.34
2018-03-03T18:09:35.698Z,99977.34
2018-03-03T18:12:01.510Z,99978.48
2018-03-03T18:14:27.328Z,99984.59
2018-03-03T18:16:53.150Z,99987.41
2018-03-03T18:19:29.271Z,99978.63
2018-03-03T18:21:55.067Z,99987.76
2018-03-03T18:24:38.992Z,99987.47
2018-03-03T18:27:04.795Z,99997.03
2018-03-03T18:29:30.592Z,99991.59
2018-03-03T18:31:56.411Z,99993.83
2018-03-03T18:34:22.195Z,99986.25
2018-03-03T18:36:47.991Z,99985.27
2018-03-03T18:39:14.055Z,99986.28
2018-03-03T18:41:39.838Z,99989.02
2018-03-03T18:44:05.622Z,100002.06
2018-03-03T18:46:31.430Z,99998.86
2018-03-03T18:48:57.213Z,100004.44
2018-03-03T18:51:23.001Z,100002.96
2018-03-03T18:53:48.810Z,100004.07
2018-03-03T18:56:14.722Z,100004.05
2018-03-03T18:58:40.507Z,100017.08
2018-03-03T19:01:06.303Z,100014.84
2018-03-03T19:03:32.330Z,100012.06
2018-03-03T19:05:58.119Z,100021.36
2018-03-03T19:08:23.923Z,100023.71
2018-03-03T19:10:49.741Z,100018.03
2018-03-03T19:13:15.530Z,100026.91
2018-03-03T19:15:41.320Z,100025.88
2018-03-03T19:18:07.149Z,100030.44
2018-03-03T19:20:32.948Z,100033.22
2018-03-03T19:22:58.743Z,100017.55
2018-03-03T19:25:24.539Z,100031.92
2018-03-03T19:27:50.323Z,100035.55
2018-03-03T19:30:16.100Z,100034.88
2018-03-03T19:32:42.163Z,100037.88
2018-03-03T19:35:07.967Z,100037.48
2018-03-03T19:37:33.784Z,100033.91
2018-03-03T19:39:59.680Z,100038.56
2018-03-03T19:42:25.501Z,100048.62
2018-03-03T19:44:51.312Z,100054.02
2018-03-03T19:47:17.113Z,100057.44
2018-03-03T19:49:42.905Z,100056.48
2018-03-03T19:52:08.696Z,100050.58
2018-03-03T19:54:34.787Z,100057.64
2018-03-03T19:57:00.575Z,100051.87
2018-03-03T19:59:26.371Z,100049.37
2018-03-03T20:01:52.207Z,100056.17
2018-03-03T20:04:18.017Z,100055.83
2018-03-03T20:06:43.803Z,100054.45
2018-03-03T20:09:09.611Z,100049.72
2018-03-03T20:11:35.391Z,100054.99
2018-03-03T20:14:01.221Z,100056.58
2018-03-03T20:16:27.024Z,100052.55
2018-03-03T20:18:52.824Z,100047.77
2018-03-03T20:21:18.642Z,100050.13
2018-03-03T20:23:44.435Z,100045.59
2018-03-03T20:26:10.224Z,100047.61
2018-03-03T20:28:36.131Z,100051.28
2018-03-03T20:31:01.932Z,100048.22
2018-03-03T20:33:27.722Z,100046.73
2018-03-03T20:35:53.535Z,100042.28
2018-03-03T20:38:19.319Z,100051.11
2018-03-03T20:40:45.092Z,100045.27
2018-03-03T20:43:10.896Z,100043.77
2018-03-03T20:45:36.687Z,100042.28
2018-03-03T20:48:02.488Z,100037.75
2018-03-03T20:50:28.328Z,100033.38
2018-03-03T20:52:54.120Z,100042.30
2018-03-03T20:55:19.943Z,100031.73
2018-03-03T20:57:45.769Z,100033.49
2018-03-03T21:00:11.557Z,100025.97
2018-03-03T21:02:37.367Z,100026.67
2018-03-03T21:05:03.206Z,100025.80
2018-03-03T21:07:28.991Z,100025.45
2018-03-03T21:09:54.870Z,100030.63
2018-03-03T21:12:21.654Z,100026.59
2018-03-03T21:14:47.577Z,100030.00
2018-03-03T21:17:13.451Z,100030.78
2018-03-03T21:19:39.976Z,100034.38
2018-03-03T21:22:06.709Z,100030.95
2018-03-03T21:24:32.513Z,100035.48
2018-03-03T21:27:00.153Z,100035.72
2018-03-03T21:29:26.853Z,100036.54
2018-03-03T21:31:53.659Z,100039.69
2018-03-03T21:34:19.819Z,100040.05
2018-03-03T21:36:45.628Z,100042.73
2018-03-03T21:39:12.122Z,100046.75
2018-03-03T21:41:37.936Z,100044.82
2018-03-03T21:44:03.754Z,100042.73
2018-03-03T21:46:29.856Z,100042.45
2018-03-03T21:48:55.674Z,100045.78
2018-03-03T21:51:21.501Z,100043.06
2018-03-03T21:53:48.555Z,100040.30
2018-03-03T21:56:15.076Z,100043.00
2018-03-03T21:58:40.880Z,100041.57
2018-03-03T22:01:07.509Z,100041.24
2018-03-03T22:03:33.360Z,100037.66
2018-03-03T22:05:59.264Z,100030.52
2018-03-03T22:08:25.119Z,100031.80
2018-03-03T22:10:50.976Z,100036.27
2018-03-03T22:13:16.818Z,100039.92
2018-03-03T22:15:42.622Z,100043.67
2018-03-03T22:18:08.452Z,100038.95
2018-03-03T22:20:34.269Z,100053.02
2018-03-03T22:23:00.178Z,100045.59
2018-03-03T22:25:25.982Z,100041.95
2018-03-03T22:27:52.759Z,100039.99
2018-03-03T22:30:19.443Z,100040.08
2018-03-03T22:32:45.251Z,100046.30
2018-03-03T22:35:11.095Z,100043.23
2018-03-03T22:37:36.902Z,100036.95
2018-03-03T22:40:02.748Z,100033.72
2018-03-03T22:42:28.886Z,100034.23
2018-03-03T22:44:54.993Z,100028.23
2018-03-03T22:47:20.835Z,100022.74
2018-03-03T22:49:46.650Z,100017.02
2018-03-03T22:52:12.483Z,100023.16
2018-03-03T22:54:38.395Z,100017.94
2018-03-03T22:57:05.105Z,100013.53
2018-03-03T22:59:30.916Z,100015.48
2018-03-03T23:01:56.748Z,100013.26
2018-03-03T23:04:22.564Z,100013.93
2018-03-03T23:06:48.380Z,100013.05
2018-03-03T23:09:14.203Z,100010.75
2018-03-03T23:11:40.016Z,100016.44
2018-03-03T23:14:05.808Z,100007.39
2018-03-03T23:16:32.329Z,100018.28
2018-03-03T23:18:58.177Z,100012.01
2018-03-03T23:21:24.266Z,100019.03
2018-03-03T23:23:50.207Z,100018.16
2018-03-03T23:26:16.223Z,100015.48
2018-03-03T23:28:42.048Z,100015.91
2018-03-03T23:31:07.853Z,100015.27
2018-03-03T23:33:33.728Z,100019.52
2018-03-03T23:35:59.539Z,100022.12
2018-03-03T23:38:26.274Z,100018.09
2018-03-03T23:40:52.379Z,100021.83
2018-03-03T23:43:18.254Z,100028.26
2018-03-03T23:45:44.423Z,100018.30
2018-03-03T23:48:10.363Z,100016.02
2018-03-03T23:50:37.046Z,100014.45
2018-03-03T23:53:02.960Z,100023.69
2018-03-03T23:55:28.822Z,100021.36
2018-03-03T23:57:55.465Z,100023.31
